Time;durP1;ratioP1;P1;durP2;ratioP2;P2;SDS_P1;SDS_P2;PMS_P1;PMS_P2;Temp;Humidity;BMP_temperature;BMP_pressure;BME280_temperature;BME280_humidity;BME280_pressure;Samples;Min_cycle;Max_cycle;Signal;HPM_P1;HPM_P2
2023/03/01 00:01:52;;;;;;;8.70;3.80;;;-1.30;99.90;;;;;;5016506;28;20397;-76
2023/03/01 00:04:18;;;;;;;7.05;3.78;;;-1.20;99.90;;;;;;5016294;28;20466;-76
2023/03/01 00:06:47;;;;;;;10.02;4.13;;;-1.30;99.90;;;;;;5014914;28;20080;-76
2023/03/01 00:09:14;;;;;;;10.18;4.30;;;-1.30;99.90;;;;;;5014825;28;20026;-76
2023/03/01 00:11:39;;;;;;;10.80;3.88;;;-1.30;99.90;;;;;;5014465;28;20481;-76
2023/03/01 00:14:06;;;;;;;6.55;3.80;;;-1.30;99.90;;;;;;5016624;28;20026;-76
2023/03/01 00:16:35;;;;;;;9.45;3.67;;;-1.30;99.90;;;;;;5014470;28;20076;-76
2023/03/01 00:19:01;;;;;;;6.85;3.38;;;-1.30;99.90;;;;;;5015387;28;20026;-76
2023/03/01 00:21:27;;;;;;;7.95;3.47;;;-1.40;99.90;;;;;;5016365;28;20469;-76
2023/03/01 00:23:54;;;;;;;9.13;3.45;;;-1.40;99.90;;;;;;5015058;28;20068;-76
2023/03/01 00:26:24;;;;;;;7.07;3.15;;;-1.50;99.90;;;;;;5015113;28;20022;-76
2023/03/01 00:28:51;;;;;;;10.88;3.80;;;-1.50;99.90;;;;;;5014735;28;20092;-76
2023/03/01 00:31:23;;;;;;;8.68;4.35;;;-1.60;99.90;;;;;;5016402;28;20028;-76
2023/03/01 00:33:53;;;;;;;10.18;3.75;;;-1.50;99.90;;;;;;5016383;28;20109;-76
2023/03/01 00:36:19;;;;;;;8.48;3.55;;;-1.50;99.90;;;;;;5016939;28;20102;-77
2023/03/01 00:38:45;;;;;;;8.07;3.60;;;-1.60;99.90;;;;;;5015071;28;20022;-76
2023/03/01 00:41:14;;;;;;;10.73;3.95;;;-1.60;99.90;;;;;;5014979;28;20033;-76
2023/03/01 00:43:40;;;;;;;7.85;3.65;;;-1.60;99.90;;;;;;5016129;28;20022;-76
2023/03/01 00:46:15;;;;;;;10.27;4.00;;;-1.60;99.90;;;;;;5015311;28;20025;-76
2023/03/01 00:48:41;;;;;;;7.18;4.05;;;-1.60;99.90;;;;;;5014711;28;20018;-76
2023/03/01 00:51:13;;;;;;;11.23;4.75;;;-1.70;99.90;;;;;;5014568;28;20393;-76
2023/03/01 00:53:39;;;;;;;8.35;4.10;;;-1.60;99.90;;;;;;5014063;28;20084;-76
2023/03/01 00:56:06;;;;;;;9.55;4.40;;;-1.60;99.90;;;;;;5013891;28;20026;-76
2023/03/01 00:58:33;;;;;;;9.38;3.88;;;-1.60;99.90;;;;;;5013934;28;20052;-76
2023/03/01 01:00:59;;;;;;;9.88;4.40;;;-1.60;99.90;;;;;;5014962;28;20022;-76
2023/03/01 01:03:25;;;;;;;9.60;4.13;;;-1.60;99.90;;;;;;5013669;28;20029;-76
2023/03/01 01:05:54;;;;;;;8.75;4.40;;;-1.50;99.90;;;;;;5013828;28;20378;-76
2023/03/01 01:08:20;;;;;;;;;;;-1.50;99.90;;;;;;5015363;28;20026;-76
2023/03/01 01:10:46;;;;;;;9.57;4.82;;;-1.50;99.90;;;;;;5014432;28;19913;-76
2023/03/01 01:13:12;;;;;;;11.35;4.65;;;-1.50;99.90;;;;;;5014702;28;20029;-76
2023/03/01 01:15:38;;;;;;;9.77;4.57;;;-1.40;99.90;;;;;;5014910;28;20030;-76
2023/03/01 01:18:04;;;;;;;10.82;4.95;;;-1.40;99.90;;;;;;5013624;28;20026;-76
2023/03/01 01:20:30;;;;;;;12.57;5.22;;;-1.40;99.90;;;;;;5014872;28;20504;-75
2023/03/01 01:22:56;;;;;;;15.80;5.82;;;-1.40;99.90;;;;;;5014608;28;20022;-76
2023/03/01 01:25:24;;;;;;;13.70;5.60;;;-1.40;99.90;;;;;;5013701;28;20029;-76
2023/03/01 01:27:50;;;;;;;16.27;5.85;;;-1.40;99.90;;;;;;5013387;28;20374;-76
2023/03/01 01:30:16;;;;;;;16.17;5.80;;;-1.40;99.90;;;;;;5014562;28;20389;-76
2023/03/01 01:32:42;;;;;;;12.73;5.20;;;-1.40;99.90;;;;;;5014520;28;20030;-76
2023/03/01 01:35:08;;;;;;;14.18;5.70;;;-1.40;99.90;;;;;;5013433;28;20032;-77
2023/03/01 01:37:33;;;;;;;16.73;5.60;;;-1.40;99.90;;;;;;5014452;28;20052;-76
2023/03/01 01:40:00;;;;;;;10.07;4.35;;;-1.50;99.90;;;;;;5014826;28;20362;-76
2023/03/01 01:42:26;;;;;;;10.55;5.10;;;-1.50;99.90;;;;;;5013211;28;20018;-76
2023/03/01 01:45:31;;;;;;;10.45;5.45;;;-1.60;99.90;;;;;;5014481;28;20421;-76
2023/03/01 01:48:21;;;;;;;10.27;4.78;;;-1.60;99.90;;;;;;5014038;28;20503;-76
2023/03/01 01:50:59;;;;;;;10.50;4.50;;;-1.60;99.90;;;;;;5012643;28;20034;-76
2023/03/01 01:53:28;;;;;;;9.88;5.22;;;-1.70;99.90;;;;;;5014359;28;20026;-76
2023/03/01 01:55:58;;;;;;;;;;;-1.80;99.90;;;;;;5014732;28;20053;-76
2023/03/01 01:58:25;;;;;;;12.60;4.75;;;-1.80;99.90;;;;;;5014649;28;19932;-76
2023/03/01 02:00:51;;;;;;;10.18;5.20;;;-1.80;99.90;;;;;;5013367;28;20512;-76
2023/03/01 02:03:25;;;;;;;11.32;4.60;;;-1.80;99.90;;;;;;5014124;28;20057;-76
2023/03/01 02:06:11;;;;;;;13.73;5.95;;;-1.80;99.90;;;;;;5014112;28;20432;-76
2023/03/01 02:08:41;;;;;;;15.02;6.10;;;-1.80;99.90;;;;;;5014617;28;20030;-76
2023/03/01 02:11:08;;;;;;;15.63;5.93;;;-1.90;99.90;;;;;;5012686;28;20057;-76
2023/03/01 02:13:35;;;;;;;12.50;5.55;;;-1.90;99.90;;;;;;5013985;28;20021;-76
2023/03/01 02:16:12;;;;;;;13.32;5.90;;;-1.90;99.90;;;;;;5013934;28;20053;-76
2023/03/01 02:18:39;;;;;;;12.95;6.00;;;-1.90;99.90;;;;;;5013923;28;20028;-76
2023/03/01 02:21:29;;;;;;;13.68;6.55;;;-1.90;99.90;;;;;;5013802;28;20088;-76
2023/03/01 02:23:55;;;;;;;13.70;6.10;;;-1.90;99.90;;;;;;5014238;28;20022;-76
2023/03/01 02:26:38;;;;;;;14.60;6.25;;;-1.90;99.90;;;;;;5013173;28;20034;-75
2023/03/01 02:29:05;;;;;;;16.75;6.25;;;-1.80;99.90;;;;;;5014926;28;20057;-76
2023/03/01 02:31:42;;;;;;;15.82;6.47;;;-1.80;99.90;;;;;;5013220;28;20030;-76
2023/03/01 02:34:12;;;;;;;16.73;6.32;;;-1.80;99.90;;;;;;5015215;28;20029;-76
2023/03/01 02:36:52;;;;;;;12.95;6.00;;;-1.80;99.90;;;;;;5013379;28;20106;-76
2023/03/01 02:39:23;;;;;;;14.88;6.68;;;-1.70;99.90;;;;;;5013292;28;20026;-76
2023/03/01 02:41:53;;;;;;;14.70;7.15;;;-1.70;99.90;;;;;;5013263;28;20066;-76
2023/03/01 02:44:20;;;;;;;28.00;6.85;;;-1.70;99.90;;;;;;5013314;28;20026;-76
2023/03/01 02:46:48;;;;;;;15.00;7.10;;;-1.70;99.90;;;;;;5012792;28;20026;-76
2023/03/01 02:49:26;;;;;;;10.18;5.45;;;-1.70;99.90;;;;;;5012951;28;20500;-76
2023/03/01 02:52:16;;;;;;;13.25;6.68;;;-1.70;99.90;;;;;;5013029;28;20112;-76
2023/03/01 02:55:04;;;;;;;16.17;6.68;;;-1.70;99.90;;;;;;5013288;28;20034;-76
2023/03/01 02:57:32;;;;;;;13.73;6.87;;;-1.70;99.90;;;;;;5013283;28;20034;-76
2023/03/01 03:00:06;;;;;;;14.48;6.15;;;-1.70;99.90;;;;;;5013086;28;20477;-76
2023/03/01 03:02:35;;;;;;;14.32;6.40;;;-1.70;99.90;;;;;;5013107;28;20045;-76
2023/03/01 03:05:05;;;;;;;;;;;-1.80;99.90;;;;;;5014982;28;20022;-76
2023/03/01 03:07:34;;;;;;;14.45;6.20;;;-1.80;99.90;;;;;;5014878;28;19928;-75
2023/03/01 03:09:59;;;;;;;18.57;7.00;;;-1.80;99.90;;;;;;5014314;28;20026;-76
2023/03/01 03:12:25;;;;;;;16.13;6.75;;;-1.80;99.90;;;;;;5014763;28;20040;-76
2023/03/01 03:14:51;;;;;;;15.52;6.30;;;-1.80;99.90;;;;;;5016423;28;20026;-76
2023/03/01 03:17:16;;;;;;;13.90;6.55;;;-1.80;99.90;;;;;;5016660;28;20040;-76
2023/03/01 03:19:45;;;;;;;14.73;6.85;;;-1.90;99.90;;;;;;5016007;28;20025;-76
2023/03/01 03:22:12;;;;;;;14.10;6.80;;;-1.90;99.90;;;;;;5016394;28;20149;-76
2023/03/01 03:24:37;;;;;;;13.23;6.75;;;-1.90;99.90;;;;;;5016579;28;20018;-76
2023/03/01 03:27:06;;;;;;;15.13;6.70;;;-1.90;99.90;;;;;;5016383;28;20028;-76
2023/03/01 03:29:35;;;;;;;16.52;6.82;;;-1.90;99.90;;;;;;5015746;28;20022;-76
2023/03/01 03:32:01;;;;;;;15.85;6.68;;;-2.00;99.90;;;;;;5015651;28;20032;-76
2023/03/01 03:34:26;;;;;;;12.82;6.85;;;-2.00;99.90;;;;;;5015593;28;20125;-76
2023/03/01 03:36:59;;;;;;;14.95;7.25;;;-2.00;99.90;;;;;;5015541;28;20030;-76
2023/03/01 03:39:34;;;;;;;13.98;6.18;;;-2.00;99.90;;;;;;5016939;28;20505;-76
2023/03/01 03:42:00;;;;;;;14.75;6.78;;;-2.10;99.90;;;;;;5016582;28;20018;-76
2023/03/01 03:44:26;;;;;;;15.85;6.18;;;-2.20;99.90;;;;;;5015323;28;20034;-75
2023/03/01 03:46:51;;;;;;;15.38;6.70;;;-2.20;99.90;;;;;;5016756;28;20420;-75
2023/03/01 03:49:17;;;;;;;14.20;5.95;;;-2.30;99.90;;;;;;5016729;28;20034;-75
2023/03/01 03:51:46;;;;;;;12.07;5.75;;;-2.30;99.90;;;;;;5015458;28;20560;-75
2023/03/01 03:54:11;;;;;;;;;;;-2.30;99.90;;;;;;5015696;28;20025;-75
2023/03/01 03:56:37;;;;;;;16.58;5.72;;;-2.40;99.90;;;;;;5015238;28;20352;-75
2023/03/01 03:59:02;;;;;;;16.17;5.90;;;-2.40;99.90;;;;;;5016133;28;20104;-75
2023/03/01 04:01:28;;;;;;;13.20;5.80;;;-2.40;99.90;;;;;;5016784;28;20022;-75
2023/03/01 04:03:54;;;;;;;11.80;5.95;;;-2.50;99.90;;;;;;5015093;28;20022;-76
2023/03/01 04:06:20;;;;;;;12.52;5.95;;;-2.50;99.90;;;;;;5016334;28;20018;-75
2023/03/01 04:08:50;;;;;;;13.48;5.53;;;-2.50;99.90;;;;;;5016428;28;20026;-75
2023/03/01 04:11:28;;;;;;;12.70;6.00;;;-2.60;99.90;;;;;;5015092;28;20029;-75
2023/03/01 04:13:57;;;;;;;13.07;6.03;;;-2.60;99.90;;;;;;5016514;28;20026;-75
2023/03/01 04:16:23;;;;;;;;;;;-2.60;99.90;;;;;;5016654;28;20030;-76
2023/03/01 04:18:49;;;;;;;11.25;4.78;;;-2.70;99.90;;;;;;5014655;28;19945;-76
2023/03/01 04:21:14;;;;;;;15.80;5.65;;;-2.70;99.90;;;;;;5016033;28;20072;-76
2023/03/01 04:23:40;;;;;;;14.88;6.00;;;-2.80;99.90;;;;;;5014282;28;20033;-76
2023/03/01 04:26:06;;;;;;;13.95;5.72;;;-2.80;99.90;;;;;;5014702;28;20026;-76
2023/03/01 04:28:38;;;;;;;14.93;5.18;;;-2.90;99.90;;;;;;5015810;28;20367;-76
2023/03/01 04:31:12;;;;;;;13.13;5.85;;;-3.00;99.90;;;;;;5015713;28;20481;-76
2023/03/01 04:33:40;;;;;;;10.98;5.57;;;-3.00;99.90;;;;;;5014678;28;20125;-76
2023/03/01 04:36:08;;;;;;;16.08;6.15;;;-3.00;99.90;;;;;;5015947;28;20030;-76
2023/03/01 04:38:36;;;;;;;17.95;6.57;;;-3.00;99.90;;;;;;5015921;28;20022;-76
2023/03/01 04:41:03;;;;;;;14.23;6.07;;;-3.10;99.90;;;;;;5015448;28;20139;-76
2023/03/01 04:43:29;;;;;;;14.93;6.32;;;-3.10;99.90;;;;;;5015575;28;20036;-76
2023/03/01 04:45:54;;;;;;;15.90;6.63;;;-3.10;99.90;;;;;;5014970;28;20018;-76
2023/03/01 04:48:20;;;;;;;15.18;7.10;;;-3.10;99.90;;;;;;5014090;28;20026;-76
2023/03/01 04:50:45;;;;;;;15.18;6.97;;;-3.10;99.90;;;;;;5015704;28;20457;-76
2023/03/01 04:53:11;;;;;;;14.68;6.53;;;-3.10;99.90;;;;;;5015562;28;20130;-76
2023/03/01 04:55:36;;;;;;;12.50;5.80;;;-3.20;99.90;;;;;;5014241;28;20050;-76
2023/03/01 04:58:02;;;;;;;14.63;6.78;;;-3.10;99.90;;;;;;5014675;28;20018;-76
2023/03/01 05:00:27;;;;;;;15.50;7.10;;;-3.10;99.90;;;;;;5015275;28;20503;-76
2023/03/01 05:02:55;;;;;;;14.25;6.68;;;-3.00;99.90;;;;;;5014665;28;20410;-76
2023/03/01 05:05:38;;;;;;;13.20;6.27;;;-3.00;99.90;;;;;;5014907;28;20022;-76
2023/03/01 05:08:06;;;;;;;14.00;6.25;;;-3.00;99.90;;;;;;5014613;28;20014;-76
2023/03/01 05:10:35;;;;;;;13.23;6.68;;;-3.10;99.90;;;;;;5014598;28;20044;-76
2023/03/01 05:13:01;;;;;;;14.48;6.75;;;-3.10;99.90;;;;;;5016124;28;20080;-76
2023/03/01 05:15:28;;;;;;;14.25;7.07;;;-3.10;99.90;;;;;;5015958;28;20037;-76
2023/03/01 05:17:55;;;;;;;13.60;6.55;;;-3.10;99.90;;;;;;5015463;28;20389;-76
2023/03/01 05:20:24;;;;;;;14.95;6.82;;;-3.00;99.90;;;;;;5014219;28;20025;-76
2023/03/01 05:22:51;;;;;;;19.88;7.68;;;-3.00;99.90;;;;;;5014366;28;20108;-76
2023/03/01 05:25:17;;;;;;;14.15;6.85;;;-3.00;99.90;;;;;;5014156;28;20030;-76
2023/03/01 05:27:42;;;;;;;17.33;7.45;;;-3.00;99.90;;;;;;5013676;28;20018;-76
2023/03/01 05:30:15;;;;;;;14.98;7.10;;;-3.00;99.90;;;;;;5014791;28;20543;-76
2023/03/01 05:32:46;;;;;;;16.10;7.30;;;-3.00;99.90;;;;;;5013760;28;20381;-76
2023/03/01 05:35:13;;;;;;;16.77;7.35;;;-2.90;99.90;;;;;;5014325;28;20101;-76
2023/03/01 05:37:41;;;;;;;15.88;6.97;;;-2.90;99.90;;;;;;5014345;28;20473;-76
2023/03/01 05:40:15;;;;;;;18.58;7.22;;;-2.80;99.90;;;;;;5014428;28;20494;-76
2023/03/01 05:42:58;;;;;;;18.45;7.57;;;-2.80;99.90;;;;;;5014496;28;20018;-76
2023/03/01 05:45:26;;;;;;;15.93;6.72;;;-2.70;99.90;;;;;;5013244;28;20133;-76
2023/03/01 05:47:52;;;;;;;20.13;8.18;;;-2.80;99.90;;;;;;5013223;28;20493;-76
2023/03/01 05:50:25;;;;;;;17.52;8.10;;;-2.70;99.90;;;;;;5013191;28;20026;-76
2023/03/01 05:53:02;;;;;;;21.50;8.15;;;-2.80;99.90;;;;;;5013244;28;20022;-76
2023/03/01 05:55:29;;;;;;;17.13;8.07;;;-2.70;99.90;;;;;;5014432;28;20021;-76
2023/03/01 05:57:57;;;;;;;19.70;7.57;;;-2.70;99.90;;;;;;5013054;28;20436;-76
2023/03/01 06:00:23;;;;;;;16.38;7.05;;;-2.70;99.90;;;;;;5013304;28;20018;-76
2023/03/01 06:02:49;;;;;;;19.65;7.57;;;-2.70;99.90;;;;;;5012854;28;20022;-76
2023/03/01 06:05:15;;;;;;;21.08;8.07;;;-2.70;99.90;;;;;;5012960;28;20018;-76
2023/03/01 06:07:41;;;;;;;18.63;8.20;;;-2.70;99.90;;;;;;5014752;28;20076;-76
2023/03/01 06:10:08;;;;;;;21.40;7.93;;;-2.70;99.90;;;;;;5014145;28;20432;-76
2023/03/01 06:12:36;;;;;;;23.95;10.00;;;-2.70;99.90;;;;;;5013978;28;20489;-76
2023/03/01 06:15:03;;;;;;;21.35;9.25;;;-2.70;99.90;;;;;;5012961;28;20026;-76
2023/03/01 06:17:30;;;;;;;20.42;8.43;;;-2.60;99.90;;;;;;5014087;28;20026;-76
2023/03/01 06:19:55;;;;;;;25.05;10.10;;;-2.70;99.90;;;;;;5013932;28;20018;-76
2023/03/01 06:22:21;;;;;;;21.90;8.98;;;-2.60;99.90;;;;;;5013873;28;20033;-76
2023/03/01 06:24:47;;;;;;;24.05;8.38;;;-2.60;99.90;;;;;;5013019;28;20391;-76
2023/03/01 06:27:12;;;;;;;26.48;8.73;;;-2.60;99.90;;;;;;5012724;28;20057;-76
2023/03/01 06:29:38;;;;;;;22.70;8.93;;;-2.50;99.90;;;;;;5014737;28;20527;-76
2023/03/01 06:32:03;;;;;;;21.63;8.75;;;-2.50;99.90;;;;;;5013626;28;20030;-76
2023/03/01 06:34:29;;;;;;;23.05;9.77;;;-2.60;99.90;;;;;;5013958;28;20030;-76
2023/03/01 06:36:55;;;;;;;24.30;8.77;;;-2.60;99.90;;;;;;5014690;28;20030;-76
2023/03/01 06:39:20;;;;;;;23.30;10.88;;;-2.60;99.90;;;;;;5012708;28;20029;-76
2023/03/01 06:41:46;;;;;;;22.30;9.68;;;-2.50;99.90;;;;;;5013719;28;20045;-76
2023/03/01 06:44:12;;;;;;;27.25;10.13;;;-2.50;99.90;;;;;;5013934;28;20025;-76
2023/03/01 06:46:38;;;;;;;22.70;9.35;;;-2.50;99.90;;;;;;5013832;28;20156;-76
2023/03/01 06:49:07;;;;;;;29.65;10.55;;;-2.50;99.90;;;;;;5015859;28;20053;-76
2023/03/01 06:51:33;;;;;;;29.52;10.48;;;-2.40;99.90;;;;;;5018238;28;20366;-76
2023/03/01 06:53:58;;;;;;;28.38;11.38;;;-2.40;99.90;;;;;;5017551;28;20022;-76
2023/03/01 06:56:24;;;;;;;28.85;11.20;;;-2.30;99.90;;;;;;5017704;28;20072;-76
2023/03/01 06:58:49;;;;;;;31.05;12.27;;;-2.20;99.90;;;;;;5017475;28;20048;-76
2023/03/01 07:01:15;;;;;;;28.20;10.88;;;-2.20;99.90;;;;;;5016127;28;20052;-76
2023/03/01 07:03:40;;;;;;;26.90;11.05;;;-2.20;99.90;;;;;;5017223;28;20022;-76
2023/03/01 07:06:06;;;;;;;28.75;11.43;;;-2.10;99.90;;;;;;5017502;28;20022;-76
2023/03/01 07:08:32;;;;;;;24.73;11.13;;;-2.10;99.90;;;;;;5017176;28;20048;-76
2023/03/01 07:10:58;;;;;;;29.77;10.93;;;-2.00;99.90;;;;;;5015886;28;20040;-76
2023/03/01 07:13:24;;;;;;;33.08;11.02;;;-2.00;99.90;;;;;;5015874;28;20033;-76
2023/03/01 07:15:50;;;;;;;30.20;11.55;;;-1.90;99.90;;;;;;5015731;28;20022;-76
2023/03/01 07:18:15;;;;;;;29.33;11.85;;;-1.80;99.90;;;;;;5017124;28;20052;-76
2023/03/01 07:20:41;;;;;;;24.67;10.38;;;-1.80;99.90;;;;;;5017596;28;20026;-76
2023/03/01 07:23:06;;;;;;;28.83;10.57;;;-1.70;99.90;;;;;;5017627;28;20030;-76
2023/03/01 07:25:32;;;;;;;27.98;11.73;;;-1.60;99.90;;;;;;5017579;28;20090;-76
2023/03/01 07:27:58;;;;;;;31.25;11.50;;;-1.50;99.90;;;;;;5016682;28;20025;-76
2023/03/01 07:30:28;;;;;;;27.85;11.02;;;-1.40;99.90;;;;;;5016722;28;20025;-76
2023/03/01 07:32:55;;;;;;;27.35;10.82;;;-1.30;99.90;;;;;;5015399;28;20438;-76
2023/03/01 07:35:21;;;;;;;30.40;11.25;;;-1.20;99.90;;;;;;5016641;28;20060;-76
2023/03/01 07:37:46;;;;;;;25.02;10.10;;;-1.20;99.90;;;;;;5015557;28;20109;-76
2023/03/01 07:40:12;;;;;;;23.88;10.98;;;-1.10;99.90;;;;;;5015292;28;20525;-76
2023/03/01 07:42:38;;;;;;;26.15;9.80;;;-1.00;99.90;;;;;;5015269;28;20389;-76
2023/03/01 07:45:05;;;;;;;21.95;9.40;;;-0.90;99.90;;;;;;5017190;28;20087;-76
2023/03/01 07:47:32;;;;;;;25.90;10.07;;;-0.80;99.90;;;;;;5016477;28;20032;-76
2023/03/01 07:49:57;;;;;;;22.38;9.45;;;-0.70;99.90;;;;;;5015135;28;20117;-76
2023/03/01 07:52:23;;;;;;;22.90;9.75;;;-0.60;99.90;;;;;;5016540;28;20053;-76
2023/03/01 07:54:48;;;;;;;21.80;9.68;;;-0.50;99.90;;;;;;5016377;28;20025;-76
2023/03/01 07:57:17;;;;;;;22.35;9.10;;;-0.40;99.90;;;;;;5015181;28;20124;-76
2023/03/01 07:59:43;;;;;;;20.58;9.40;;;-0.30;99.90;;;;;;5016146;28;20030;-76
2023/03/01 08:02:10;;;;;;;19.50;8.20;;;-0.20;99.90;;;;;;5015919;28;20033;-76
2023/03/01 08:04:36;;;;;;;17.35;7.90;;;-0.10;99.90;;;;;;5014815;28;20539;-76
2023/03/01 08:07:04;;;;;;;17.55;8.57;;;0.00;99.90;;;;;;5015874;28;20018;-76
2023/03/01 08:09:29;;;;;;;21.13;8.38;;;0.10;99.90;;;;;;5014934;28;20492;-76
2023/03/01 08:11:57;;;;;;;17.23;7.85;;;0.20;99.90;;;;;;5016077;28;20084;-76
2023/03/01 08:14:22;;;;;;;19.63;7.70;;;0.30;99.90;;;;;;5014618;28;20048;-76
2023/03/01 08:16:51;;;;;;;16.58;7.18;;;0.40;99.90;;;;;;5014565;28;20022;-76
2023/03/01 08:19:17;;;;;;;20.95;7.22;;;0.50;99.90;;;;;;5016526;28;20033;-76
2023/03/01 08:21:42;;;;;;;17.33;7.03;;;0.60;99.90;;;;;;5015766;28;20044;-76
2023/03/01 08:24:10;;;;;;;15.45;6.53;;;0.70;99.90;;;;;;5014680;28;20072;-76
2023/03/01 08:26:36;;;;;;;17.77;6.82;;;0.80;99.90;;;;;;5014666;28;20022;-76
2023/03/01 08:29:02;;;;;;;15.18;6.95;;;0.90;99.90;;;;;;5015733;28;20466;-75
2023/03/01 08:31:35;;;;;;;14.82;5.82;;;1.00;99.90;;;;;;5015619;28;20026;-75
2023/03/01 08:34:02;;;;;;;14.80;6.13;;;1.10;99.90;;;;;;5015688;28;20033;-76
2023/03/01 08:36:31;;;;;;;14.68;6.22;;;1.20;99.90;;;;;;5014354;28;20029;-75
2023/03/01 08:38:57;;;;;;;15.10;4.75;;;1.30;99.90;;;;;;5015609;28;20037;-75
2023/03/01 08:41:23;;;;;;;12.65;5.82;;;1.40;99.90;;;;;;5014291;28;20366;-75
2023/03/01 08:43:50;;;;;;;12.27;4.95;;;1.50;99.90;;;;;;5014226;28;20024;-75
2023/03/01 08:46:15;;;;;;;10.90;5.15;;;1.60;99.90;;;;;;5015502;28;20095;-75
2023/03/01 08:48:42;;;;;;;11.02;4.72;;;1.70;99.90;;;;;;5014079;28;20056;-75
2023/03/01 08:51:18;;;;;;;9.93;4.22;;;1.80;99.90;;;;;;5015274;28;20045;-75
2023/03/01 08:53:44;;;;;;;10.55;4.22;;;2.00;99.90;;;;;;5015666;28;20025;-76
2023/03/01 08:56:10;;;;;;;9.27;3.80;;;2.10;99.90;;;;;;5015449;28;20393;-75
2023/03/01 08:58:37;;;;;;;9.80;3.65;;;2.20;99.90;;;;;;5014106;28;20029;-75
2023/03/01 09:01:14;;;;;;;8.65;3.88;;;2.30;99.90;;;;;;5013392;28;20052;-75
2023/03/01 09:03:40;;;;;;;8.25;3.67;;;2.40;99.90;;;;;;5014986;28;20058;-75
2023/03/01 09:06:07;;;;;;;9.00;3.97;;;2.50;99.90;;;;;;5015169;28;20061;-76
2023/03/01 09:08:38;;;;;;;8.60;3.33;;;2.50;99.90;;;;;;5015282;28;20041;-76
2023/03/01 09:11:05;;;;;;;12.68;4.00;;;2.60;99.90;;;;;;5014012;28;20072;-76
2023/03/01 09:13:31;;;;;;;9.15;3.10;;;2.80;99.90;;;;;;5015180;28;20029;-76
2023/03/01 09:15:58;;;;;;;6.85;3.35;;;2.90;99.90;;;;;;5015295;28;20485;-76
2023/03/01 09:18:23;;;;;;;7.45;3.72;;;3.00;99.90;;;;;;5015085;28;20025;-76
2023/03/01 09:20:49;;;;;;;6.95;3.55;;;3.00;99.90;;;;;;5015236;28;20404;-76
2023/03/01 09:23:14;;;;;;;7.40;3.13;;;3.10;99.90;;;;;;5013876;28;20584;-76
2023/03/01 09:25:40;;;;;;;8.38;3.13;;;3.20;99.90;;;;;;5014093;28;20022;-76
2023/03/01 09:28:06;;;;;;;8.05;3.08;;;3.30;99.90;;;;;;5015439;28;20022;-75
2023/03/01 09:30:31;;;;;;;7.30;2.80;;;3.40;99.90;;;;;;5013588;28;20070;-76
2023/03/01 09:32:57;;;;;;;6.43;2.47;;;3.50;99.90;;;;;;5014639;28;20030;-76
2023/03/01 09:35:23;;;;;;;7.68;2.78;;;3.60;99.90;;;;;;5014543;28;20018;-76
2023/03/01 09:37:49;;;;;;;5.70;2.85;;;3.70;99.90;;;;;;5013441;28;20128;-76
2023/03/01 09:40:28;;;;;;;5.85;2.42;;;3.80;99.90;;;;;;5013076;28;20018;-76
2023/03/01 09:43:05;;;;;;;8.00;2.72;;;3.90;99.90;;;;;;5014582;28;20398;-76
2023/03/01 09:45:38;;;;;;;11.85;4.20;;;4.00;99.90;;;;;;5015100;28;20076;-76
2023/03/01 09:48:06;;;;;;;6.18;2.40;;;4.10;99.90;;;;;;5014598;28;20073;-76
2023/03/01 09:50:41;;;;;;;7.93;2.53;;;4.20;99.90;;;;;;5014414;28;20013;-76
2023/03/01 09:53:15;;;;;;;4.72;2.28;;;4.40;99.90;;;;;;5014836;28;20035;-76
2023/03/01 09:55:53;;;;;;;6.75;2.40;;;4.50;99.90;;;;;;5013001;28;20497;-76
2023/03/01 09:58:31;;;;;;;8.43;2.38;;;4.60;99.90;;;;;;5014306;28;20049;-76
2023/03/01 10:01:03;;;;;;;5.47;2.25;;;4.80;99.90;;;;;;5012744;28;20030;-76
2023/03/01 10:03:42;;;;;;;5.03;1.75;;;4.80;99.90;;;;;;5014053;28;20018;-76
2023/03/01 10:06:20;;;;;;;4.97;2.00;;;5.00;99.90;;;;;;5012984;28;20370;-76
2023/03/01 10:08:58;;;;;;;3.25;1.33;;;5.10;99.90;;;;;;5014188;28;20045;-76
2023/03/01 10:11:37;;;;;;;3.75;1.80;;;5.30;99.90;;;;;;5012681;28;20221;-76
2023/03/01 10:14:24;;;;;;;5.80;1.95;;;5.30;99.90;;;;;;5012761;28;20481;-76
2023/03/01 10:16:58;;;;;;;2.38;1.02;;;5.40;99.90;;;;;;5014322;28;20049;-76
2023/03/01 10:19:36;;;;;;;3.03;1.48;;;5.40;99.90;;;;;;5013937;28;20056;-76
2023/03/01 10:22:24;;;;;;;4.43;1.52;;;5.50;99.90;;;;;;5012095;28;20030;-76
2023/03/01 10:24:51;;;;;;;5.97;1.60;;;5.50;99.90;;;;;;5013885;28;20026;-76
2023/03/01 10:27:34;;;;;;;4.82;2.03;;;5.60;99.90;;;;;;5012588;28;20033;-76
2023/03/01 10:30:29;;;;;;;3.15;1.33;;;5.70;99.90;;;;;;5012665;28;20029;-76
2023/03/01 10:32:56;;;;;;;4.07;1.23;;;5.70;99.90;;;;;;5014363;28;20037;-76
2023/03/01 10:35:25;;;;;;;4.32;2.00;;;5.80;99.90;;;;;;5013764;28;20393;-76
2023/03/01 10:38:09;;;;;;;4.70;1.50;;;5.80;99.90;;;;;;5012521;28;20108;-76
2023/03/01 10:40:36;;;;;;;4.43;1.83;;;5.80;99.90;;;;;;5013832;28;20026;-76
2023/03/01 10:43:05;;;;;;;5.78;1.90;;;5.90;99.90;;;;;;5013487;28;20101;-76
2023/03/01 10:45:38;;;;;;;5.78;2.17;;;5.90;99.90;;;;;;5013741;28;20110;-76
2023/03/01 10:48:24;;;;;;;5.85;2.53;;;6.00;99.90;;;;;;5014177;28;20021;-76
2023/03/01 10:50:58;;;;;;;4.07;1.70;;;6.10;99.90;;;;;;5012511;28;20030;-76
2023/03/01 10:53:29;;;;;;;5.45;2.38;;;6.10;99.90;;;;;;5013426;28;20504;-76
2023/03/01 10:56:07;;;;;;;5.85;1.60;;;6.20;99.90;;;;;;5012766;28;20022;-76
2023/03/01 10:58:35;;;;;;;3.53;1.07;;;6.30;99.90;;;;;;5013529;28;20052;-76
2023/03/01 11:01:04;;;;;;;3.47;1.30;;;6.40;99.90;;;;;;5013021;28;20040;-76
2023/03/01 11:03:36;;;;;;;8.82;2.28;;;6.50;99.90;;;;;;5013896;28;20022;-76
2023/03/01 11:06:26;;;;;;;3.97;1.15;;;6.50;99.90;;;;;;5013431;28;20485;-76
2023/03/01 11:08:52;;;;;;;4.72;1.40;;;6.60;99.90;;;;;;5011993;28;20136;-76
2023/03/01 11:11:22;;;;;;;6.40;1.50;;;6.70;99.90;;;;;;5013267;28;20029;-76
2023/03/01 11:14:04;;;;;;;2.72;0.68;;;6.80;99.90;;;;;;5011918;28;20030;-76
2023/03/01 11:16:38;;;;;;;6.22;1.50;;;7.00;99.80;;;;;;5012027;28;20057;-76
2023/03/01 11:19:14;;;;;;;3.97;1.25;;;7.00;99.50;;;;;;5013287;28;20056;-76
2023/03/01 11:22:04;;;;;;;3.05;1.33;;;7.10;98.30;;;;;;5011721;28;20034;-76
2023/03/01 11:24:45;;;;;;;4.65;1.27;;;7.20;99.50;;;;;;5011907;28;20026;-76
2023/03/01 11:27:50;;;;;;;2.17;0.88;;;7.30;99.40;;;;;;5013218;28;20421;-76
2023/03/01 11:30:35;;;;;;;2.95;0.85;;;7.30;97.80;;;;;;5011656;28;20099;-76
2023/03/01 11:33:27;;;;;;;5.05;1.25;;;7.40;98.90;;;;;;5013079;28;20370;-76
2023/03/01 11:36:16;;;;;;;4.32;1.52;;;7.50;96.80;;;;;;5016587;28;20026;-76
2023/03/01 11:38:43;;;;;;;5.72;1.05;;;7.60;97.20;;;;;;5016451;28;20034;-76
2023/03/01 11:41:15;;;;;;;5.13;0.98;;;7.70;95.00;;;;;;5016338;28;20026;-76
2023/03/01 11:44:00;;;;;;;4.15;1.27;;;7.90;94.70;;;;;;5016473;28;20026;-76
2023/03/01 11:46:32;;;;;;;4.45;1.30;;;8.00;95.00;;;;;;5015083;28;20018;-76
2023/03/01 11:49:18;;;;;;;2.25;0.70;;;8.10;94.10;;;;;;5016319;28;20037;-76
2023/03/01 11:52:06;;;;;;;2.78;0.68;;;8.30;93.30;;;;;;5014961;28;20026;-76
2023/03/01 11:54:34;;;;;;;3.72;0.70;;;8.20;93.10;;;;;;5016752;28;20386;-76
2023/03/01 11:57:05;;;;;;;3.65;0.95;;;8.30;92.80;;;;;;5016259;28;20100;-76
2023/03/01 11:59:48;;;;;;;2.72;0.82;;;8.40;92.10;;;;;;5014822;28;20124;-76
2023/03/01 12:02:45;;;;;;;3.20;0.70;;;8.50;91.80;;;;;;5014700;28;20551;-76
2023/03/01 12:05:44;;;;;;;3.42;0.60;;;8.60;91.40;;;;;;5010377;28;20405;-76
2023/03/01 12:08:31;;;;;;;2.28;0.70;;;8.70;91.00;;;;;;5014278;28;20041;-76
2023/03/01 12:11:34;;;;;;;3.17;0.40;;;8.80;92.20;;;;;;5016091;28;20038;-76
2023/03/01 12:14:14;;;;;;;2.10;0.32;;;9.00;89.90;;;;;;5016440;28;20536;-76
2023/03/01 12:16:48;;;;;;;1.02;0.30;;;9.20;86.90;;;;;;5015934;28;20028;-76
2023/03/01 12:19:41;;;;;;;2.63;0.60;;;9.30;80.80;;;;;;5015661;28;20061;-76
2023/03/01 12:22:28;;;;;;;5.10;0.52;;;9.40;80.70;;;;;;5014349;28;20121;-76
2023/03/01 12:25:00;;;;;;;2.40;0.20;;;9.60;77.90;;;;;;5014404;28;20064;-76
2023/03/01 12:27:34;;;;;;;1.02;0.10;;;9.70;78.70;;;;;;5016133;28;20030;-76
2023/03/01 12:30:19;;;;;;;1.60;0.38;;;9.80;78.90;;;;;;5015538;28;20026;-76
2023/03/01 12:33:21;;;;;;;1.48;0.40;;;9.90;77.30;;;;;;5015605;28;20085;-76
2023/03/01 12:36:11;;;;;;;0.63;0.28;;;10.10;77.60;;;;;;5014236;28;20026;-76
2023/03/01 12:38:48;;;;;;;2.50;0.30;;;10.20;76.30;;;;;;5015415;28;20489;-76
2023/03/01 12:41:29;;;;;;;2.60;0.52;;;10.40;73.50;;;;;;5015483;28;20045;-76
2023/03/01 12:43:55;;;;;;;2.65;0.40;;;10.60;72.20;;;;;;5014153;28;20026;-76
2023/03/01 12:46:32;;;;;;;2.50;0.55;;;10.50;70.60;;;;;;5013941;28;20072;-76
2023/03/01 12:49:18;;;;;;;1.75;0.20;;;10.50;70.70;;;;;;5014131;28;20474;-76
2023/03/01 12:52:01;;;;;;;1.77;0.70;;;10.50;71.90;;;;;;5015166;28;20026;-76
2023/03/01 12:54:31;;;;;;;2.78;0.85;;;10.60;69.50;;;;;;5015396;28;20404;-76
2023/03/01 12:57:15;;;;;;;4.60;0.70;;;10.70;71.20;;;;;;5013780;28;20037;-76
2023/03/01 13:00:26;;;;;;;2.60;0.43;;;10.80;70.60;;;;;;5015090;28;20060;-76
2023/03/01 13:02:59;;;;;;;4.47;0.40;;;10.80;69.50;;;;;;5015127;28;20029;-76
2023/03/01 13:05:39;;;;;;;1.42;0.38;;;11.00;69.20;;;;;;5015565;28;20029;-76